createdAt,value
2022-12-19T00:00:46.571Z,24.63
2022-12-19T00:03:15.974Z,21.33
2022-12-19T00:05:45.194Z,20.23
2022-12-19T00:08:18.031Z,21.20
2022-12-19T00:10:57.031Z,23.57
2022-12-19T00:13:26.612Z,23.90
2022-12-19T00:15:55.718Z,21.20
2022-12-19T00:18:24.780Z,24.03
2022-12-19T00:20:58.696Z,21.13
2022-12-19T00:23:28.812Z,21.37
2022-12-19T00:26:08.948Z,23.37
2022-12-19T00:28:37.970Z,22.30
2022-12-19T00:31:07.806Z,21.63
2022-12-19T00:33:37.463Z,20.57
2022-12-19T00:36:14.049Z,19.87
2022-12-19T00:38:46.024Z,22.10
2022-12-19T00:41:18.684Z,20.23
2022-12-19T00:43:48.343Z,19.83
2022-12-19T00:46:17.731Z,19.17
2022-12-19T00:48:46.763Z,21.50
2022-12-19T00:51:17.797Z,22.27
2022-12-19T00:53:48.381Z,21.47
2022-12-19T00:56:20.587Z,20.07
2022-12-19T00:58:50.121Z,20.10
2022-12-19T01:01:22.126Z,21.50
2022-12-19T01:04:26.799Z,18.40
2022-12-19T01:06:40.562Z,21.40
2022-12-19T01:09:10.233Z,20.07
2022-12-19T01:11:58.085Z,20.27
2022-12-19T01:14:27.087Z,17.40
2022-12-19T01:16:56.216Z,19.93
2022-12-19T01:19:25.649Z,21.37
2022-12-19T01:21:55.597Z,20.90
2022-12-19T01:24:24.578Z,22.13
2022-12-19T01:26:55.008Z,21.40
2022-12-19T01:29:24.001Z,25.67
2022-12-19T01:31:53.024Z,21.47
2022-12-19T01:34:22.087Z,20.60
2022-12-19T01:36:51.053Z,20.53
2022-12-19T01:39:20.051Z,22.87
2022-12-19T01:41:50.967Z,22.00
2022-12-19T01:44:21.462Z,23.37
2022-12-19T01:46:54.931Z,26.57
2022-12-19T01:49:31.364Z,22.73
2022-12-19T01:52:04.185Z,24.37
2022-12-19T01:54:38.878Z,26.87
2022-12-19T01:57:12.682Z,24.00
2022-12-19T01:59:46.487Z,24.73
2022-12-19T02:02:20.456Z,25.20
2022-12-19T02:04:50.040Z,22.10
2022-12-19T02:07:21.582Z,24.53
2022-12-19T02:09:56.783Z,26.03
2022-12-19T02:12:37.984Z,24.87
2022-12-19T02:15:11.294Z,29.77
2022-12-19T02:17:52.741Z,24.43
2022-12-19T02:20:56.730Z,25.07
2022-12-19T02:24:10.581Z,26.67
2022-12-19T02:27:12.860Z,27.80
2022-12-19T02:30:11.605Z,25.90
2022-12-19T02:32:56.377Z,26.43
2022-12-19T02:35:33.008Z,24.50
2022-12-19T02:38:12.759Z,25.50
2022-12-19T02:40:46.833Z,25.27
2022-12-19T02:43:24.168Z,24.67
2022-12-19T02:45:55.298Z,24.77
2022-12-19T02:48:26.224Z,24.70
2022-12-19T02:50:55.236Z,24.07
2022-12-19T02:53:24.422Z,27.10
2022-12-19T02:56:17.812Z,23.00
2022-12-19T02:59:00.936Z,28.33
2022-12-19T03:01:43.069Z,25.03
2022-12-19T03:04:22.325Z,32.33
2022-12-19T03:06:56.334Z,26.77
2022-12-19T03:09:33.866Z,27.27
2022-12-19T03:12:10.711Z,26.80
2022-12-19T03:14:44.604Z,25.67
2022-12-19T03:17:13.704Z,27.70
2022-12-19T03:19:44.319Z,28.07
2022-12-19T03:22:13.496Z,26.47
2022-12-19T03:24:42.994Z,27.90
2022-12-19T03:27:19.586Z,24.73
2022-12-19T03:29:54.931Z,28.40
2022-12-19T03:32:25.830Z,27.70
2022-12-19T03:35:01.595Z,27.27
2022-12-19T03:37:35.345Z,25.63
2022-12-19T03:40:07.616Z,30.63
2022-12-19T03:42:56.779Z,25.67
2022-12-19T03:45:33.666Z,29.60
2022-12-19T03:48:08.272Z,29.27
2022-12-19T03:50:48.130Z,24.03
2022-12-19T03:53:30.316Z,26.40
2022-12-19T03:56:07.157Z,27.47
2022-12-19T03:58:39.806Z,28.93
2022-12-19T04:01:09.800Z,25.10
2022-12-19T04:03:39.116Z,28.07
2022-12-19T04:06:10.279Z,26.57
2022-12-19T04:08:39.877Z,24.97
2022-12-19T04:11:12.542Z,27.80
2022-12-19T04:13:46.254Z,30.13
2022-12-19T04:16:21.510Z,24.33
2022-12-19T04:18:57.300Z,28.97
2022-12-19T04:21:33.596Z,28.90
2022-12-19T04:24:07.573Z,27.47
2022-12-19T04:26:37.996Z,25.67
2022-12-19T04:29:09.366Z,24.60
2022-12-19T04:31:38.882Z,23.63
2022-12-19T04:34:08.020Z,27.87
2022-12-19T04:36:38.457Z,29.33
2022-12-19T04:39:07.535Z,24.90
2022-12-19T04:41:36.514Z,27.50
2022-12-19T04:44:05.769Z,28.83
2022-12-19T04:46:34.787Z,27.50
2022-12-19T04:49:03.834Z,26.63
2022-12-19T04:51:32.880Z,29.37
2022-12-19T04:54:03.300Z,28.17
2022-12-19T04:56:32.309Z,33.87
2022-12-19T04:59:01.661Z,27.17
2022-12-19T05:01:30.771Z,29.23
2022-12-19T05:04:04.191Z,26.63
2022-12-19T05:06:33.990Z,23.77
2022-12-19T05:09:04.579Z,26.57
2022-12-19T05:11:33.574Z,26.77
2022-12-19T05:14:02.715Z,26.27
2022-12-19T05:16:31.749Z,25.53
2022-12-19T05:19:01.714Z,31.07
2022-12-19T05:21:30.791Z,26.90
2022-12-19T05:24:00.065Z,23.20
2022-12-19T05:26:30.708Z,29.40
2022-12-19T05:28:59.832Z,27.87
2022-12-19T05:31:28.889Z,27.60
2022-12-19T05:33:57.885Z,27.47
2022-12-19T05:36:32.283Z,25.93
2022-12-19T05:39:01.728Z,26.70
2022-12-19T05:41:32.259Z,30.43
2022-12-19T05:44:01.297Z,28.37
2022-12-19T05:46:30.380Z,25.80
2022-12-19T05:48:59.572Z,28.47
2022-12-19T05:51:29.264Z,33.07
2022-12-19T05:53:58.386Z,30.23
2022-12-19T05:56:27.429Z,31.27
2022-12-19T05:58:58.091Z,29.87
2022-12-19T06:01:29.367Z,34.23
2022-12-19T06:03:58.426Z,30.47
2022-12-19T06:06:28.670Z,30.43
2022-12-19T06:08:59.007Z,33.00
2022-12-19T06:11:28.795Z,31.23
2022-12-19T06:13:59.249Z,32.13
2022-12-19T06:16:28.308Z,33.60
2022-12-19T06:18:57.344Z,29.57
2022-12-19T06:21:26.461Z,32.77
2022-12-19T06:23:56.568Z,30.97
2022-12-19T06:26:25.620Z,32.60
2022-12-19T06:28:56.631Z,33.47
2022-12-19T06:31:27.324Z,30.00
2022-12-19T06:33:57.090Z,34.70
2022-12-19T06:36:27.740Z,34.60
2022-12-19T06:38:59.099Z,30.30
2022-12-19T06:41:45.280Z,32.17
2022-12-19T06:44:16.048Z,36.47
2022-12-19T06:46:46.785Z,31.03
2022-12-19T06:49:15.824Z,32.43
2022-12-19T06:51:45.159Z,33.43
2022-12-19T06:54:15.550Z,32.57
2022-12-19T06:56:45.282Z,32.13
2022-12-19T06:59:16.596Z,29.40
2022-12-19T07:02:14.419Z,31.30
2022-12-19T07:04:47.497Z,37.23
2022-12-19T07:07:16.804Z,30.50
2022-12-19T07:09:45.870Z,37.40
2022-12-19T07:12:14.912Z,31.63
2022-12-19T07:14:45.858Z,35.43
2022-12-19T07:17:20.743Z,35.00
2022-12-19T07:19:49.922Z,35.40
2022-12-19T07:22:19.139Z,31.80
2022-12-19T07:24:48.348Z,30.27
2022-12-19T07:27:17.508Z,32.57
2022-12-19T07:29:46.677Z,29.20
2022-12-19T07:32:15.800Z,29.13
2022-12-19T07:34:46.430Z,33.13
2022-12-19T07:37:15.762Z,31.70
2022-12-19T07:39:44.881Z,35.90
2022-12-19T07:42:13.952Z,34.37
2022-12-19T07:44:43.058Z,38.67
2022-12-19T07:47:12.257Z,34.87
2022-12-19T07:49:41.324Z,40.33
2022-12-19T07:52:11.833Z,30.90
2022-12-19T07:54:41.221Z,34.37
2022-12-19T07:57:10.278Z,31.60
2022-12-19T07:59:39.651Z,31.77
2022-12-19T08:02:09.015Z,30.80
2022-12-19T08:04:38.252Z,31.53
2022-12-19T08:07:07.364Z,32.43
2022-12-19T08:09:37.882Z,33.90
2022-12-19T08:12:07.382Z,31.93
2022-12-19T08:14:36.401Z,31.17
2022-12-19T08:17:21.615Z,29.10
2022-12-19T08:19:51.112Z,27.20
2022-12-19T08:22:20.276Z,25.10
2022-12-19T08:24:50.973Z,31.10
2022-12-19T08:27:20.121Z,31.13
2022-12-19T08:29:49.121Z,27.47
2022-12-19T08:32:21.128Z,29.83
2022-12-19T08:34:51.147Z,26.77
2022-12-19T08:37:20.295Z,28.10
2022-12-19T08:39:50.808Z,28.53
2022-12-19T08:42:19.810Z,34.33
2022-12-19T08:44:48.821Z,31.10
2022-12-19T08:47:18.046Z,32.03
2022-12-19T08:49:47.518Z,29.97
2022-12-19T08:52:17.822Z,32.07
2022-12-19T08:54:47.242Z,28.43
2022-12-19T08:57:17.745Z,30.70
2022-12-19T08:59:47.009Z,28.60
2022-12-19T09:02:17.754Z,31.20
2022-12-19T09:05:57.446Z,30.97
2022-12-19T09:07:38.539Z,31.13
2022-12-19T09:10:09.115Z,29.93
2022-12-19T09:12:39.594Z,27.93
2022-12-19T09:15:09.258Z,29.63
2022-12-19T09:17:38.306Z,32.80
2022-12-19T09:20:08.306Z,29.50
2022-12-19T09:22:37.358Z,29.63
2022-12-19T09:25:07.286Z,34.93
2022-12-19T09:28:09.213Z,30.77
2022-12-19T09:30:27.293Z,29.43
2022-12-19T09:32:56.942Z,31.00
2022-12-19T09:35:30.212Z,31.97
2022-12-19T09:38:00.567Z,30.83
2022-12-19T09:40:44.663Z,33.63
2022-12-19T09:43:22.658Z,31.93
2022-12-19T09:46:03.607Z,27.70
2022-12-19T09:48:33.128Z,30.83
2022-12-19T09:51:09.570Z,31.10
2022-12-19T09:53:54.644Z,28.03
2022-12-19T09:56:27.677Z,29.23
2022-12-19T09:59:05.524Z,27.40
2022-12-19T10:01:41.191Z,28.17
2022-12-19T10:04:14.486Z,28.20
2022-12-19T10:07:12.990Z,27.87
2022-12-19T10:12:00.710Z,28.87
2022-12-19T10:12:52.279Z,28.10
2022-12-19T10:15:30.921Z,26.77
2022-12-19T10:18:32.996Z,26.67
2022-12-19T10:21:08.330Z,27.53
2022-12-19T10:23:58.044Z,24.93
2022-12-19T10:26:34.974Z,27.97
2022-12-19T10:29:20.029Z,25.63
2022-12-19T10:31:57.446Z,27.90
2022-12-19T10:34:38.552Z,26.87
2022-12-19T10:37:23.191Z,24.20
2022-12-19T10:40:21.734Z,28.17
2022-12-19T10:43:07.023Z,23.73
2022-12-19T10:45:45.369Z,24.80
2022-12-19T10:48:22.437Z,26.13
2022-12-19T10:51:06.342Z,25.63
2022-12-19T10:53:36.072Z,24.73
2022-12-19T10:56:14.842Z,30.63
2022-12-19T10:58:45.097Z,24.23
2022-12-19T11:01:16.588Z,24.33
2022-12-19T11:03:50.144Z,24.27
2022-12-19T11:06:49.749Z,26.07
2022-12-19T11:09:25.030Z,27.40
2022-12-19T11:15:24.207Z,32.57
2022-12-19T11:21:18.374Z,26.87
2022-12-19T11:22:19.873Z,26.37
2022-12-19T11:29:46.978Z,24.73
2022-12-19T11:30:38.458Z,29.17
2022-12-19T11:30:45.319Z,25.30
2022-12-19T11:31:58.398Z,29.73
2022-12-19T11:32:39.718Z,27.23
2022-12-19T11:35:24.945Z,30.00
2022-12-19T11:37:57.569Z,29.97
2022-12-19T11:40:36.692Z,26.27
2022-12-19T11:43:43.303Z,26.70
2022-12-19T11:46:04.014Z,28.17
2022-12-19T11:48:40.130Z,27.77
2022-12-19T11:51:18.848Z,25.70
2022-12-19T11:53:57.938Z,24.43
2022-12-19T11:56:30.243Z,28.97
2022-12-19T11:59:02.499Z,28.47
2022-12-19T12:01:48.060Z,26.33
2022-12-19T12:04:48.764Z,29.10
2022-12-19T12:07:28.092Z,25.87
2022-12-19T12:10:17.748Z,26.17
2022-12-19T12:21:04.068Z,24.73
2022-12-19T12:27:28.299Z,26.93
2022-12-19T12:31:22.106Z,27.70
2022-12-19T12:31:27.851Z,28.00
2022-12-19T12:31:46.930Z,26.70
2022-12-19T12:32:02.059Z,26.50
2022-12-19T12:35:32.682Z,25.67
2022-12-19T12:40:43.011Z,27.17
2022-12-19T12:43:27.676Z,26.77
2022-12-19T12:45:56.706Z,28.90
2022-12-19T12:48:30.291Z,22.07
2022-12-19T12:51:01.670Z,27.70
2022-12-19T12:53:34.824Z,29.43
2022-12-19T12:56:07.226Z,29.83
2022-12-19T12:59:20.285Z,28.10
2022-12-19T13:01:53.849Z,26.63
2022-12-19T13:04:35.415Z,29.20
2022-12-19T13:07:17.258Z,29.70
2022-12-19T13:09:47.797Z,29.10
2022-12-19T13:12:39.410Z,25.73
2022-12-19T13:15:38.140Z,27.10
2022-12-19T13:18:15.601Z,28.57
2022-12-19T13:20:47.892Z,30.93
2022-12-19T13:23:33.735Z,28.67
2022-12-19T13:26:02.922Z,29.43
2022-12-19T13:28:43.581Z,32.57
2022-12-19T13:31:22.831Z,35.40
2022-12-19T13:34:20.554Z,30.87
2022-12-19T13:39:49.081Z,33.57
2022-12-19T13:40:00.348Z,31.40
2022-12-19T13:43:10.329Z,33.60
2022-12-19T13:45:42.947Z,28.50
2022-12-19T13:48:17.902Z,33.40
2022-12-19T13:50:49.443Z,29.03
2022-12-19T13:53:20.167Z,30.70
2022-12-19T13:55:54.866Z,31.57
2022-12-19T13:58:28.816Z,31.47
2022-12-19T14:01:02.314Z,30.10
2022-12-19T14:03:39.974Z,28.80
2022-12-19T14:06:18.304Z,28.37
2022-12-19T14:09:46.163Z,30.80
2022-12-19T14:13:44.948Z,30.67
2022-12-19T14:15:02.016Z,33.50
2022-12-19T14:17:39.811Z,32.17
2022-12-19T14:22:02.716Z,31.20
2022-12-19T14:23:09.476Z,30.77
2022-12-19T14:28:26.979Z,30.50
2022-12-19T14:28:42.075Z,30.90
2022-12-19T14:31:15.674Z,29.33
2022-12-19T14:34:04.676Z,32.77
2022-12-19T14:36:41.723Z,30.30
2022-12-19T14:39:24.147Z,32.13
2022-12-19T14:42:31.549Z,33.47
2022-12-19T14:54:06.175Z,38.17
2022-12-19T14:54:17.436Z,34.27
2022-12-19T14:54:33.737Z,30.73
2022-12-19T14:58:07.923Z,31.30
2022-12-19T15:01:08.108Z,32.33
2022-12-19T15:03:23.391Z,30.67
2022-12-19T15:05:54.760Z,34.50
2022-12-19T15:09:01.872Z,33.80
2022-12-19T15:11:53.975Z,35.63
2022-12-19T15:14:57.240Z,30.43
2022-12-19T15:17:25.539Z,32.03
2022-12-19T15:19:54.563Z,34.27
2022-12-19T15:22:23.603Z,32.70
2022-12-19T15:24:52.721Z,36.00
2022-12-19T15:27:23.420Z,35.70
2022-12-19T15:29:52.524Z,37.70
2022-12-19T15:32:21.602Z,36.87
2022-12-19T15:34:51.847Z,35.60
2022-12-19T15:37:20.976Z,34.93
2022-12-19T15:39:50.211Z,34.10
2022-12-19T15:42:22.926Z,33.20
2022-12-19T15:44:56.046Z,40.07
2022-12-19T15:47:32.412Z,36.27
2022-12-19T15:50:05.523Z,35.60
2022-12-19T15:52:34.646Z,39.17
2022-12-19T15:55:03.870Z,38.70
2022-12-19T15:57:36.585Z,36.97
2022-12-19T16:00:09.627Z,33.77
2022-12-19T16:03:21.035Z,37.57
2022-12-19T16:05:30.735Z,36.67
2022-12-19T16:08:00.162Z,28.83
2022-12-19T16:10:29.339Z,31.77
2022-12-19T16:12:59.155Z,37.40
2022-12-19T16:15:31.780Z,36.70
2022-12-19T16:18:03.276Z,37.30
2022-12-19T16:20:36.615Z,36.80
2022-12-19T16:23:06.044Z,35.03
2022-12-19T16:25:38.616Z,34.60
2022-12-19T16:28:09.010Z,36.37
2022-12-19T16:30:40.609Z,37.90
2022-12-19T16:33:19.984Z,35.00
2022-12-19T16:36:06.620Z,37.87
2022-12-19T16:38:36.660Z,34.00
2022-12-19T16:41:05.852Z,37.30
2022-12-19T16:43:39.475Z,40.03
2022-12-19T16:46:14.546Z,34.07
2022-12-19T16:48:43.704Z,35.10
2022-12-19T16:51:19.907Z,36.43
2022-12-19T16:53:49.540Z,38.27
2022-12-19T16:56:27.866Z,35.00
2022-12-19T16:58:58.072Z,34.03
2022-12-19T17:01:29.130Z,34.23
2022-12-19T17:03:58.379Z,36.60
2022-12-19T17:06:28.324Z,33.37
2022-12-19T17:08:57.460Z,34.93
2022-12-19T17:11:28.031Z,37.60
2022-12-19T17:14:03.929Z,35.67
2022-12-19T17:16:34.534Z,36.47
2022-12-19T17:19:03.729Z,38.47
2022-12-19T17:21:32.857Z,37.87
2022-12-19T17:24:01.876Z,34.50
2022-12-19T17:26:31.025Z,35.77
2022-12-19T17:29:00.656Z,36.17
2022-12-19T17:31:38.161Z,42.73
2022-12-19T17:34:14.175Z,37.53
2022-12-19T17:36:43.450Z,33.90
2022-12-19T17:39:20.986Z,33.30
2022-12-19T17:41:50.742Z,36.43
2022-12-19T17:44:20.150Z,35.50
2022-12-19T17:46:49.627Z,34.63
2022-12-19T17:49:24.834Z,39.10
2022-12-19T17:51:54.112Z,37.53
2022-12-19T17:54:24.365Z,36.03
2022-12-19T17:56:53.590Z,41.70
2022-12-19T17:59:22.783Z,36.40
2022-12-19T18:01:52.461Z,40.37
2022-12-19T18:04:23.356Z,42.13
2022-12-19T18:06:52.758Z,39.60
2022-12-19T18:09:22.934Z,37.13
2022-12-19T18:11:52.807Z,41.20
2022-12-19T18:14:21.992Z,41.93
2022-12-19T18:16:52.455Z,45.10
2022-12-19T18:19:26.265Z,39.83
2022-12-19T18:21:55.934Z,39.10
2022-12-19T18:24:26.340Z,35.93
2022-12-19T18:26:55.930Z,38.20
2022-12-19T18:29:26.144Z,39.57
2022-12-19T18:31:56.794Z,36.67
2022-12-19T18:34:29.912Z,37.57
2022-12-19T18:36:59.424Z,38.63
2022-12-19T18:39:32.149Z,40.30
2022-12-19T18:42:01.558Z,38.90
2022-12-19T18:44:31.366Z,39.63
2022-12-19T18:47:01.462Z,36.13
2022-12-19T18:49:35.079Z,42.53
2022-12-19T18:52:04.816Z,39.87
2022-12-19T18:54:34.263Z,38.23
2022-12-19T18:57:04.265Z,39.77
2022-12-19T18:59:34.506Z,38.33
2022-12-19T19:02:05.091Z,39.73
2022-12-19T19:04:36.029Z,37.13
2022-12-19T19:07:05.623Z,40.63
2022-12-19T19:09:37.266Z,37.73
2022-12-19T19:12:26.468Z,38.73
2022-12-19T19:14:55.691Z,37.13
2022-12-19T19:17:29.824Z,42.53
2022-12-19T19:20:01.306Z,43.07
2022-12-19T19:22:32.263Z,35.83
2022-12-19T19:25:02.225Z,43.23
2022-12-19T19:27:32.157Z,38.90
2022-12-19T19:30:02.390Z,38.57
2022-12-19T19:32:33.031Z,42.07
2022-12-19T19:35:05.336Z,42.13
2022-12-19T19:37:35.653Z,39.50
2022-12-19T19:40:04.988Z,44.90
2022-12-19T19:42:34.380Z,41.63
2022-12-19T19:45:03.745Z,41.77
2022-12-19T19:47:36.580Z,44.70
2022-12-19T19:50:09.156Z,39.57
2022-12-19T19:52:40.856Z,44.13
2022-12-19T19:55:10.834Z,42.03
2022-12-19T19:57:40.084Z,43.67
2022-12-19T20:00:11.020Z,41.30
2022-12-19T20:02:43.334Z,40.33
2022-12-19T20:05:14.039Z,46.50
2022-12-19T20:07:43.769Z,41.37
2022-12-19T20:10:14.424Z,44.30
2022-12-19T20:12:43.846Z,37.27
2022-12-19T20:15:13.542Z,37.53
2022-12-19T20:17:43.984Z,38.50
2022-12-19T20:20:16.915Z,44.53
2022-12-19T20:22:47.266Z,39.43
2022-12-19T20:25:17.404Z,37.80
2022-12-19T20:27:46.490Z,43.37
2022-12-19T20:30:16.186Z,43.17
2022-12-19T20:32:46.822Z,39.57
2022-12-19T20:35:18.530Z,44.53
2022-12-19T20:37:49.469Z,42.93
2022-12-19T20:40:19.063Z,38.40
2022-12-19T20:42:48.427Z,41.20
2022-12-19T20:45:18.038Z,43.03
2022-12-19T20:47:47.226Z,43.50
2022-12-19T20:50:18.324Z,41.43
2022-12-19T20:52:47.789Z,37.67
2022-12-19T20:55:17.158Z,41.70
2022-12-19T20:57:46.204Z,38.30
2022-12-19T21:00:18.122Z,40.63
2022-12-19T21:03:25.732Z,43.73
2022-12-19T21:05:37.670Z,39.57
2022-12-19T21:08:07.329Z,38.80
2022-12-19T21:10:37.391Z,41.10
2022-12-19T21:13:06.542Z,39.50
2022-12-19T21:15:35.623Z,41.70
2022-12-19T21:18:05.019Z,41.10
2022-12-19T21:20:37.524Z,37.83
2022-12-19T21:23:07.075Z,35.77
2022-12-19T21:25:36.184Z,37.50
2022-12-19T21:28:05.513Z,40.20
2022-12-19T21:30:34.684Z,46.47
2022-12-19T21:33:04.184Z,37.03
2022-12-19T21:35:38.192Z,39.80
2022-12-19T21:38:07.353Z,44.57
2022-12-19T21:40:38.002Z,37.67
2022-12-19T21:43:11.691Z,38.40
2022-12-19T21:45:41.843Z,39.73
2022-12-19T21:48:10.962Z,34.33
2022-12-19T21:50:41.435Z,35.40
2022-12-19T21:53:11.092Z,38.97
2022-12-19T21:55:40.201Z,37.30
2022-12-19T21:58:09.290Z,38.90
2022-12-19T22:00:38.351Z,36.63
2022-12-19T22:03:15.578Z,39.70
2022-12-19T22:05:46.317Z,32.97
2022-12-19T22:08:15.310Z,38.53
2022-12-19T22:10:44.368Z,37.07
2022-12-19T22:13:13.558Z,42.43
2022-12-19T22:15:42.531Z,39.17
2022-12-19T22:18:12.260Z,38.27
2022-12-19T22:20:43.162Z,39.23
2022-12-19T22:23:14.540Z,37.20
2022-12-19T22:25:43.550Z,37.70
2022-12-19T22:28:12.655Z,39.47
2022-12-19T22:30:41.669Z,40.53
2022-12-19T22:33:10.719Z,40.77
2022-12-19T22:35:40.613Z,37.53
2022-12-19T22:38:09.642Z,40.97
2022-12-19T22:40:40.104Z,35.37
2022-12-19T22:43:09.279Z,38.07
2022-12-19T22:45:38.439Z,37.10
2022-12-19T22:48:07.985Z,37.70
2022-12-19T22:50:37.087Z,37.70
2022-12-19T22:53:12.465Z,37.20
2022-12-19T22:55:44.123Z,39.20
2022-12-19T22:58:13.221Z,37.13
2022-12-19T23:00:43.409Z,39.23
2022-12-19T23:03:12.684Z,36.97
2022-12-19T23:05:45.602Z,35.60
2022-12-19T23:08:17.772Z,38.03
2022-12-19T23:10:51.604Z,40.77
2022-12-19T23:13:21.255Z,35.33
2022-12-19T23:15:50.290Z,38.83
2022-12-19T23:18:19.743Z,38.13
2022-12-19T23:20:48.807Z,35.17
2022-12-19T23:23:17.901Z,35.87
2022-12-19T23:25:50.880Z,38.50
2022-12-19T23:28:19.929Z,35.60
2022-12-19T23:30:48.922Z,37.80
2022-12-19T23:33:18.872Z,38.03
2022-12-19T23:35:47.864Z,35.63
2022-12-19T23:38:16.885Z,38.83
2022-12-19T23:40:47.323Z,37.37
2022-12-19T23:43:16.483Z,37.30
2022-12-19T23:45:45.550Z,33.90
2022-12-19T23:48:14.579Z,36.63
2022-12-19T23:50:43.607Z,34.40
2022-12-19T23:53:12.633Z,34.70
2022-12-19T23:55:41.698Z,39.67
2022-12-19T23:58:16.562Z,37.83
